Time;durP1;ratioP1;P1;durP2;ratioP2;P2;SDS_P1;SDS_P2;PMS_P1;PMS_P2;Temp;Humidity;BMP_temperature;BMP_pressure;BME280_temperature;BME280_humidity;BME280_pressure;Samples;Min_cycle;Max_cycle;Signal;HPM_P1;HPM_P2
2022/08/02 00:00:54;;;;;;;6.55;4.10;;;;;;;;;;5059481;28;20196;-67
2022/08/02 00:03:22;;;;;;;6.82;4.47;;;;;;;;;;5055373;28;20216;-67
2022/08/02 00:05:51;;;;;;;5.28;4.18;;;;;;;;;;5060014;28;20243;-67
2022/08/02 00:08:20;;;;;;;5.13;4.40;;;;;;;;;;5045802;28;20883;-67
2022/08/02 00:10:48;;;;;;;7.22;4.55;;;;;;;;;;5044262;28;20209;-67
2022/08/02 00:13:15;;;;;;;6.10;4.35;;;;;;;;;;5041621;28;20198;-67
2022/08/02 00:15:42;;;;;;;6.97;4.57;;;;;;;;;;5063474;28;20253;-67
2022/08/02 00:18:10;;;;;;;5.05;4.35;;;;;;;;;;5062349;28;20229;-67
2022/08/02 00:20:37;;;;;;;4.93;4.32;;;;;;;;;;5059505;28;20725;-67
2022/08/02 00:23:05;;;;;;;5.38;4.40;;;;;;;;;;5046346;28;20201;-67
2022/08/02 00:25:32;;;;;;;6.78;4.78;;;;;;;;;;5058710;28;20209;-67
2022/08/02 00:28:00;;;;;;;5.22;4.72;;;;;;;;;;5045127;28;20359;-67
2022/08/02 00:30:27;;;;;;;7.75;4.60;;;;;;;;;;5048901;28;20217;-67
2022/08/02 00:32:55;;;;;;;5.20;4.38;;;;;;;;;;5046265;28;20201;-67
2022/08/02 00:35:22;;;;;;;4.90;4.40;;;;;;;;;;5054870;28;20241;-67
2022/08/02 00:37:49;;;;;;;5.05;4.55;;;;;;;;;;5059605;28;20246;-66
2022/08/02 00:40:20;;;;;;;6.00;4.43;;;;;;;;;;5063153;28;20202;-67
2022/08/02 00:42:59;;;;;;;6.05;4.38;;;;;;;;;;5061851;28;20578;-67
2022/08/02 00:45:28;;;;;;;6.10;4.55;;;;;;;;;;5047570;28;21943;-66
2022/08/02 00:48:15;;;;;;;6.53;4.47;;;;;;;;;;5063236;28;20230;-67
2022/08/02 00:50:42;;;;;;;8.95;4.13;;;;;;;;;;5060854;28;20210;-66
2022/08/02 00:53:10;;;;;;;5.10;4.07;;;;;;;;;;5074077;28;20205;-66
2022/08/02 00:55:38;;;;;;;7.00;3.97;;;;;;;;;;5043043;28;20306;-67
2022/08/02 00:58:07;;;;;;;6.20;4.38;;;;;;;;;;5051335;28;20239;-67
2022/08/02 01:00:34;;;;;;;7.28;4.00;;;;;;;;;;5073523;28;20198;-66
2022/08/02 01:03:01;;;;;;;8.18;3.92;;;;;;;;;;5059833;28;20197;-66
2022/08/02 01:05:29;;;;;;;5.22;3.78;;;;;;;;;;5062640;28;20209;-66
2022/08/02 01:07:56;;;;;;;6.38;4.00;;;;;;;;;;5039631;28;20233;-66
2022/08/02 01:10:24;;;;;;;5.38;3.90;;;;;;;;;;5050921;28;20884;-66
2022/08/02 01:12:51;;;;;;;5.03;3.90;;;;;;;;;;5059073;28;20205;-66
2022/08/02 01:15:19;;;;;;;5.22;3.58;;;;;;;;;;5054867;28;20699;-65
2022/08/02 01:18:02;;;;;;;5.47;3.58;;;;;;;;;;5057921;28;20298;-65
2022/08/02 01:20:38;;;;;;;4.97;3.20;;;;;;;;;;5059347;28;20212;-65
2022/08/02 01:23:15;;;;;;;3.45;3.08;;;;;;;;;;5059572;28;20202;-65
2022/08/02 01:26:01;;;;;;;10.68;3.88;;;;;;;;;;5039825;28;20232;-65
2022/08/02 01:28:47;;;;;;;4.13;3.22;;;;;;;;;;5062387;28;20233;-67
2022/08/02 01:31:30;;;;;;;6.20;3.60;;;;;;;;;;5062952;28;20217;-66
2022/08/02 01:34:03;;;;;;;3.70;3.38;;;;;;;;;;5059409;28;20776;-66
2022/08/02 01:36:33;;;;;;;4.07;3.25;;;;;;;;;;5059366;28;20228;-66
2022/08/02 01:39:04;;;;;;;5.43;2.88;;;;;;;;;;5053823;28;20682;-66
2022/08/02 01:41:31;;;;;;;4.30;3.03;;;;;;;;;;5065462;28;20886;-66
2022/08/02 01:43:59;;;;;;;3.47;3.17;;;;;;;;;;5046640;28;20821;-66
2022/08/02 01:46:28;;;;;;;7.88;3.20;;;;;;;;;;5066453;28;20220;-66
2022/08/02 01:48:56;;;;;;;3.22;2.72;;;;;;;;;;5064285;28;20237;-66
2022/08/02 01:54:14;;;;;;;6.90;2.78;;;;;;;;;;5059926;28;20683;-66
2022/08/02 01:56:41;;;;;;;3.58;2.72;;;;;;;;;;5057606;28;20688;-66
2022/08/02 01:59:11;;;;;;;2.75;2.50;;;;;;;;;;5055409;28;20214;-66
2022/08/02 02:01:39;;;;;;;3.70;2.50;;;;;;;;;;5061360;28;20209;-67
2022/08/02 02:04:09;;;;;;;2.80;2.60;;;;;;;;;;5048297;28;20206;-66
2022/08/02 02:06:37;;;;;;;3.45;2.58;;;;;;;;;;5043642;28;20435;-65
2022/08/02 02:09:05;;;;;;;4.85;2.90;;;;;;;;;;5060644;28;20210;-66
2022/08/02 02:11:33;;;;;;;3.75;2.35;;;;;;;;;;5045144;28;20201;-66
2022/08/02 02:14:21;;;;;;;2.90;2.63;;;;;;;;;;5045957;28;20214;-66
2022/08/02 02:16:49;;;;;;;2.97;2.78;;;;;;;;;;5042379;28;20231;-64
2022/08/02 02:19:18;;;;;;;4.93;2.65;;;;;;;;;;5049590;28;20205;-65
2022/08/02 02:21:47;;;;;;;3.97;2.38;;;;;;;;;;5060106;28;20289;-64
2022/08/02 02:24:14;;;;;;;3.25;2.53;;;;;;;;;;5048076;28;20215;-67
2022/08/02 02:26:43;;;;;;;4.47;2.80;;;;;;;;;;5047600;28;20948;-66
2022/08/02 02:29:20;;;;;;;2.85;2.63;;;;;;;;;;5056799;28;20215;-66
2022/08/02 02:31:50;;;;;;;3.08;2.40;;;;;;;;;;5047279;28;20251;-64
2022/08/02 02:34:20;;;;;;;3.88;2.30;;;;;;;;;;5057494;28;20572;-65
2022/08/02 02:36:48;;;;;;;2.65;2.20;;;;;;;;;;5057002;28;20225;-65
2022/08/02 02:39:16;;;;;;;3.28;2.70;;;;;;;;;;5059899;28;20209;-67
2022/08/02 02:41:47;;;;;;;3.83;2.17;;;;;;;;;;5055945;28;20198;-67
2022/08/02 02:44:18;;;;;;;4.03;3.20;;;;;;;;;;5056362;28;20202;-66
2022/08/02 02:46:47;;;;;;;3.25;2.38;;;;;;;;;;5070425;28;20212;-66
2022/08/02 02:49:15;;;;;;;2.97;2.30;;;;;;;;;;5045007;28;20214;-66
2022/08/02 02:51:43;;;;;;;3.55;2.47;;;;;;;;;;5047241;28;20219;-66
2022/08/02 02:54:12;;;;;;;4.68;2.15;;;;;;;;;;5073741;28;20262;-65
2022/08/02 02:57:00;;;;;;;2.50;2.20;;;;;;;;;;5040724;28;20211;-64
2022/08/02 02:59:28;;;;;;;2.35;2.20;;;;;;;;;;5044007;28;20318;-65
2022/08/02 03:01:55;;;;;;;3.33;2.05;;;;;;;;;;5040258;28;20627;-66
2022/08/02 03:04:26;;;;;;;2.28;2.17;;;;;;;;;;5056101;28;20282;-66
2022/08/02 03:07:14;;;;;;;2.97;2.20;;;;;;;;;;5061983;28;20234;-64
2022/08/02 03:09:42;;;;;;;4.72;2.28;;;;;;;;;;5044931;28;20258;-67
2022/08/02 03:12:10;;;;;;;3.67;2.10;;;;;;;;;;5065735;28;20216;-65
2022/08/02 03:14:44;;;;;;;2.30;2.10;;;;;;;;;;5047054;28;20651;-65
2022/08/02 03:17:15;;;;;;;3.05;1.80;;;;;;;;;;5056636;28;20240;-64
2022/08/02 03:19:42;;;;;;;2.40;2.20;;;;;;;;;;5053488;28;20642;-67
2022/08/02 03:22:10;;;;;;;2.97;2.25;;;;;;;;;;5044867;28;20201;-67
2022/08/02 03:24:38;;;;;;;1.85;1.75;;;;;;;;;;5047249;28;20210;-67
2022/08/02 03:27:05;;;;;;;2.58;1.85;;;;;;;;;;5061452;28;21580;-67
2022/08/02 03:29:33;;;;;;;2.13;2.03;;;;;;;;;;5052578;28;20216;-65
2022/08/02 03:32:01;;;;;;;2.30;2.10;;;;;;;;;;5061486;28;20667;-65
2022/08/02 03:34:28;;;;;;;3.88;2.88;;;;;;;;;;5038683;28;20197;-67
2022/08/02 03:36:57;;;;;;;2.92;2.05;;;;;;;;;;5063920;28;20303;-65
2022/08/02 03:39:25;;;;;;;3.40;2.38;;;;;;;;;;5068249;28;20201;-65
2022/08/02 03:41:54;;;;;;;2.28;2.08;;;;;;;;;;5051872;28;20224;-66
2022/08/02 03:44:22;;;;;;;2.65;2.17;;;;;;;;;;5047529;28;20679;-65
2022/08/02 03:46:51;;;;;;;2.47;2.00;;;;;;;;;;5048291;28;20217;-65
2022/08/02 03:49:18;;;;;;;2.10;2.00;;;;;;;;;;5062920;28;20214;-67
2022/08/02 03:51:46;;;;;;;2.28;1.70;;;;;;;;;;5050036;28;20204;-66
2022/08/02 03:54:14;;;;;;;2.33;1.90;;;;;;;;;;5064565;28;20621;-65
2022/08/02 03:56:42;;;;;;;2.10;2.00;;;;;;;;;;5048945;28;20212;-67
2022/08/02 03:59:10;;;;;;;2.40;2.00;;;;;;;;;;5067388;28;20200;-67
2022/08/02 04:01:41;;;;;;;3.37;2.00;;;;;;;;;;5065099;28;20198;-67
2022/08/02 04:04:09;;;;;;;2.60;2.40;;;;;;;;;;5049321;28;20212;-66
2022/08/02 04:06:37;;;;;;;2.55;2.33;;;;;;;;;;5058585;28;20197;-65
2022/08/02 04:09:08;;;;;;;2.55;2.35;;;;;;;;;;5058819;28;20877;-67
2022/08/02 04:11:36;;;;;;;5.93;3.33;;;;;;;;;;5065122;28;20205;-66
2022/08/02 04:14:05;;;;;;;6.38;2.40;;;;;;;;;;5066178;28;20213;-66
2022/08/02 04:16:42;;;;;;;2.50;2.30;;;;;;;;;;5047313;28;20287;-67
2022/08/02 04:19:11;;;;;;;2.97;2.50;;;;;;;;;;5057734;28;20209;-64
2022/08/02 04:21:43;;;;;;;2.90;2.57;;;;;;;;;;5058613;28;20218;-65
2022/08/02 04:24:21;;;;;;;6.67;2.50;;;;;;;;;;5057220;28;20208;-65
2022/08/02 04:26:52;;;;;;;6.87;3.40;;;;;;;;;;5058004;28;20667;-66
2022/08/02 04:29:20;;;;;;;12.13;2.80;;;;;;;;;;5059764;28;20212;-65
2022/08/02 04:31:48;;;;;;;6.83;4.10;;;;;;;;;;5046155;28;20205;-66
2022/08/02 04:34:15;;;;;;;5.43;3.38;;;;;;;;;;5063499;28;20206;-66
2022/08/02 04:36:43;;;;;;;5.20;3.40;;;;;;;;;;5040883;28;20226;-66
2022/08/02 04:39:10;;;;;;;8.17;4.00;;;;;;;;;;5045650;28;20209;-66
2022/08/02 04:41:42;;;;;;;5.05;3.88;;;;;;;;;;5063714;28;20267;-66
2022/08/02 04:44:10;;;;;;;4.88;3.10;;;;;;;;;;5042557;28;20307;-66
2022/08/02 04:46:38;;;;;;;3.73;2.93;;;;;;;;;;5050881;28;20675;-66
2022/08/02 04:49:06;;;;;;;3.97;2.88;;;;;;;;;;5047673;28;20198;-65
2022/08/02 04:51:35;;;;;;;4.17;2.60;;;;;;;;;;5063081;28;20734;-65
2022/08/02 04:54:05;;;;;;;5.03;2.42;;;;;;;;;;5062144;28;20655;-66
2022/08/02 04:56:37;;;;;;;4.20;2.67;;;;;;;;;;5064763;28;20610;-65
2022/08/02 04:59:04;;;;;;;3.70;2.20;;;;;;;;;;5063019;28;20207;-66
2022/08/02 05:01:33;;;;;;;3.13;2.70;;;;;;;;;;5038919;28;20229;-65
2022/08/02 05:04:01;;;;;;;3.25;3.03;;;;;;;;;;5061892;28;20198;-65
2022/08/02 05:06:28;;;;;;;2.80;2.60;;;;;;;;;;5065066;28;20267;-67
2022/08/02 05:08:55;;;;;;;2.63;2.35;;;;;;;;;;5043189;28;20233;-65
2022/08/02 05:11:23;;;;;;;2.92;2.33;;;;;;;;;;5059246;28;20343;-64
2022/08/02 05:14:02;;;;;;;3.00;2.15;;;;;;;;;;5069790;28;20198;-66
2022/08/02 05:16:30;;;;;;;2.00;1.90;;;;;;;;;;5067603;28;20233;-67
2022/08/02 05:18:59;;;;;;;2.47;2.28;;;;;;;;;;5051834;28;20249;-66
2022/08/02 05:21:27;;;;;;;3.58;2.08;;;;;;;;;;5062667;28;20201;-66
2022/08/02 05:23:54;;;;;;;2.10;1.85;;;;;;;;;;5045600;28;20197;-66
2022/08/02 05:26:22;;;;;;;3.35;2.40;;;;;;;;;;5061476;28;21673;-64
2022/08/02 05:28:49;;;;;;;2.83;2.63;;;;;;;;;;5058670;28;20222;-67
2022/08/02 05:31:16;;;;;;;3.70;2.70;;;;;;;;;;5059090;28;20211;-65
2022/08/02 05:33:44;;;;;;;2.55;2.30;;;;;;;;;;5056810;28;20251;-67
2022/08/02 05:36:11;;;;;;;2.42;1.90;;;;;;;;;;5062673;28;20228;-66
2022/08/02 05:38:39;;;;;;;2.70;1.80;;;;;;;;;;5064292;28;20240;-66
2022/08/02 05:41:08;;;;;;;2.55;1.52;;;;;;;;;;5065730;28;20270;-66
2022/08/02 05:43:35;;;;;;;1.75;1.30;;;;;;;;;;5058264;28;20318;-67
2022/08/02 05:46:02;;;;;;;2.63;1.33;;;;;;;;;;5047379;28;20209;-67
2022/08/02 05:48:30;;;;;;;3.03;1.25;;;;;;;;;;5059793;28;20218;-67
2022/08/02 05:51:18;;;;;;;1.77;1.67;;;;;;;;;;5064457;28;20680;-67
2022/08/02 05:53:49;;;;;;;3.58;1.42;;;;;;;;;;5037336;28;20198;-67
2022/08/02 05:56:20;;;;;;;2.13;1.30;;;;;;;;;;5061527;28;20202;-67
2022/08/02 05:58:54;;;;;;;2.03;1.30;;;;;;;;;;5047438;28;20239;-67
2022/08/02 06:01:28;;;;;;;1.58;1.20;;;;;;;;;;5056109;28;20202;-67
2022/08/02 06:03:56;;;;;;;3.60;1.20;;;;;;;;;;5049963;28;20679;-67
2022/08/02 06:06:24;;;;;;;1.75;1.17;;;;;;;;;;5043856;28;20621;-66
2022/08/02 06:08:58;;;;;;;1.05;0.95;;;;;;;;;;5050544;28;20817;-67
2022/08/02 06:11:32;;;;;;;1.65;1.30;;;;;;;;;;5056573;28;20216;-67
2022/08/02 06:13:59;;;;;;;3.53;1.45;;;;;;;;;;5054661;28;20826;-67
2022/08/02 06:16:29;;;;;;;1.30;1.20;;;;;;;;;;5062757;28;20217;-67
2022/08/02 06:18:59;;;;;;;2.03;1.70;;;;;;;;;;5049222;28;20271;-67
2022/08/02 06:21:28;;;;;;;1.35;1.23;;;;;;;;;;5057902;28;20205;-66
2022/08/02 06:24:18;;;;;;;1.92;1.40;;;;;;;;;;5046570;28;20740;-67
2022/08/02 06:26:51;;;;;;;2.30;1.30;;;;;;;;;;5055156;28;20666;-67
2022/08/02 06:29:20;;;;;;;4.57;1.45;;;;;;;;;;5037558;28;20209;-67
2022/08/02 06:31:51;;;;;;;2.05;1.30;;;;;;;;;;5042150;28;20296;-67
2022/08/02 06:34:18;;;;;;;1.67;1.58;;;;;;;;;;5058086;28;20217;-66
2022/08/02 06:36:51;;;;;;;2.22;1.40;;;;;;;;;;5044226;28;20232;-67
2022/08/02 06:39:32;;;;;;;4.65;1.92;;;;;;;;;;5035889;28;20672;-67
2022/08/02 06:42:02;;;;;;;2.35;1.67;;;;;;;;;;5058918;28;20197;-67
2022/08/02 06:44:29;;;;;;;2.08;1.77;;;;;;;;;;5058438;28;20203;-67
2022/08/02 06:47:15;;;;;;;1.80;1.65;;;;;;;;;;5056756;28;20232;-67
2022/08/02 06:49:43;;;;;;;1.92;1.50;;;;;;;;;;5041894;28;20267;-67
2022/08/02 06:52:22;;;;;;;1.23;1.23;;;;;;;;;;5043736;28;20236;-67
2022/08/02 06:54:56;;;;;;;3.47;1.70;;;;;;;;;;5037989;28;20265;-66
2022/08/02 06:57:23;;;;;;;3.55;1.55;;;;;;;;;;5035330;28;20229;-66
2022/08/02 06:59:51;;;;;;;1.80;1.70;;;;;;;;;;5053220;28;20208;-67
2022/08/02 07:02:19;;;;;;;1.90;1.80;;;;;;;;;;5065389;28;20242;-67
2022/08/02 07:04:46;;;;;;;1.80;1.70;;;;;;;;;;5055509;28;20202;-67
2022/08/02 07:07:14;;;;;;;3.13;1.73;;;;;;;;;;5049754;28;20642;-66
2022/08/02 07:09:41;;;;;;;3.17;1.63;;;;;;;;;;5060116;28;20579;-67
2022/08/02 07:12:27;;;;;;;3.58;1.80;;;;;;;;;;5043803;28;20312;-67
2022/08/02 07:14:54;;;;;;;2.78;1.70;;;;;;;;;;5043115;28;20641;-67
2022/08/02 07:17:22;;;;;;;5.22;1.77;;;;;;;;;;5073829;28;20237;-67
2022/08/02 07:19:49;;;;;;;2.85;1.70;;;;;;;;;;5041781;28;20205;-67
2022/08/02 07:22:18;;;;;;;2.38;1.50;;;;;;;;;;5064824;28;20220;-67
2022/08/02 07:24:46;;;;;;;1.70;1.60;;;;;;;;;;5056046;28;20588;-67
2022/08/02 07:27:13;;;;;;;1.90;1.63;;;;;;;;;;5043017;28;20282;-67
2022/08/02 07:29:41;;;;;;;1.30;1.30;;;;;;;;;;5051338;28;20208;-67
2022/08/02 07:32:13;;;;;;;1.60;1.50;;;;;;;;;;5059043;28;20217;-67
2022/08/02 07:34:41;;;;;;;2.70;1.70;;;;;;;;;;5052760;28;20352;-67
2022/08/02 07:37:12;;;;;;;1.45;1.35;;;;;;;;;;5042030;28;20731;-67
2022/08/02 07:40:00;;;;;;;2.75;1.40;;;;;;;;;;5047272;28;20670;-67
2022/08/02 07:42:29;;;;;;;1.65;1.52;;;;;;;;;;5039922;28;20212;-67
2022/08/02 07:44:56;;;;;;;1.52;1.42;;;;;;;;;;5053806;28;20675;-66
2022/08/02 07:47:24;;;;;;;2.60;1.48;;;;;;;;;;5061328;28;20241;-67
2022/08/02 07:49:51;;;;;;;1.60;1.50;;;;;;;;;;5042576;28;21856;-67
2022/08/02 07:52:19;;;;;;;1.92;1.50;;;;;;;;;;5058307;28;20865;-67
2022/08/02 07:54:47;;;;;;;2.38;1.65;;;;;;;;;;5072631;28;20309;-65
2022/08/02 07:57:14;;;;;;;1.75;1.65;;;;;;;;;;5047135;28;20245;-67
2022/08/02 07:59:42;;;;;;;1.70;1.60;;;;;;;;;;5056365;28;20198;-68
2022/08/02 08:02:09;;;;;;;1.70;1.60;;;;;;;;;;5049874;28;20203;-65
2022/08/02 08:04:37;;;;;;;1.80;1.70;;;;;;;;;;5044948;28;20210;-65
2022/08/02 08:07:06;;;;;;;1.98;1.73;;;;;;;;;;5062822;28;20236;-67
2022/08/02 08:09:38;;;;;;;2.13;1.67;;;;;;;;;;5064645;28;20206;-65
2022/08/02 08:12:06;;;;;;;1.67;1.52;;;;;;;;;;5062693;28;20210;-65
2022/08/02 08:14:33;;;;;;;1.90;1.80;;;;;;;;;;5043332;28;20205;-67
2022/08/02 08:17:01;;;;;;;2.53;2.00;;;;;;;;;;5060853;28;20284;-68
2022/08/02 08:19:28;;;;;;;1.65;1.55;;;;;;;;;;5060554;28;20209;-66
2022/08/02 08:22:16;;;;;;;1.60;1.50;;;;;;;;;;5052460;28;20206;-70
2022/08/02 08:24:44;;;;;;;4.20;1.60;;;;;;;;;;5053838;28;20213;-70
2022/08/02 08:27:13;;;;;;;2.25;2.05;;;;;;;;;;5056947;28;20235;-67
2022/08/02 08:29:41;;;;;;;1.95;1.85;;;;;;;;;;5042886;28;20201;-66
2022/08/02 08:32:09;;;;;;;1.98;1.85;;;;;;;;;;5054234;28;20210;-66
2022/08/02 08:34:43;;;;;;;1.70;1.60;;;;;;;;;;5046513;28;20208;-66
2022/08/02 08:37:10;;;;;;;3.10;1.50;;;;;;;;;;5062617;28;20238;-67
2022/08/02 08:39:47;;;;;;;1.98;1.88;;;;;;;;;;5055336;28;20259;-67
2022/08/02 08:42:26;;;;;;;1.90;1.80;;;;;;;;;;5046046;28;20537;-66
2022/08/02 08:44:55;;;;;;;1.80;1.70;;;;;;;;;;5048469;28;20295;-66
2022/08/02 08:47:24;;;;;;;2.63;1.88;;;;;;;;;;5059141;28;20232;-66
2022/08/02 08:50:01;;;;;;;1.77;1.67;;;;;;;;;;5074960;28;20205;-66
2022/08/02 08:52:29;;;;;;;1.63;1.45;;;;;;;;;;5048495;28;20206;-68
2022/08/02 08:54:57;;;;;;;2.38;1.70;;;;;;;;;;5072704;28;20216;-66
2022/08/02 08:57:28;;;;;;;1.67;1.52;;;;;;;;;;5045294;28;20258;-65
2022/08/02 08:59:57;;;;;;;2.15;1.45;;;;;;;;;;5057191;28;20216;-66
2022/08/02 09:02:24;;;;;;;2.67;1.80;;;;;;;;;;5041914;28;20278;-66
2022/08/02 09:05:01;;;;;;;1.80;1.70;;;;;;;;;;5065362;28;20198;-67
2022/08/02 09:07:29;;;;;;;2.55;2.13;;;;;;;;;;5057804;28;20225;-66
2022/08/02 09:09:57;;;;;;;1.58;1.48;;;;;;;;;;5053086;28;20255;-65
2022/08/02 09:12:24;;;;;;;2.65;1.67;;;;;;;;;;5061015;28;20214;-66
2022/08/02 09:14:52;;;;;;;1.67;1.58;;;;;;;;;;5046679;28;20198;-66
2022/08/02 09:17:20;;;;;;;1.98;1.80;;;;;;;;;;5046212;28;20221;-66
2022/08/02 09:20:05;;;;;;;2.80;1.75;;;;;;;;;;5061304;28;20205;-65
2022/08/02 09:22:32;;;;;;;1.92;1.55;;;;;;;;;;5044520;28;20250;-66
2022/08/02 09:25:00;;;;;;;1.65;1.50;;;;;;;;;;5049799;28;20737;-66
2022/08/02 09:27:36;;;;;;;1.60;1.50;;;;;;;;;;5028297;28;25201;-68
2022/08/02 09:30:06;;;;;;;1.70;1.60;;;;;;;;;;5058630;28;20216;-67
2022/08/02 09:32:48;;;;;;;2.83;1.75;;;;;;;;;;5051609;28;20287;-66
2022/08/02 09:35:31;;;;;;;1.85;1.70;;;;;;;;;;5042334;28;20220;-66
2022/08/02 09:38:19;;;;;;;1.70;1.60;;;;;;;;;;5044434;28;20326;-65
2022/08/02 09:40:46;;;;;;;1.95;1.77;;;;;;;;;;5042720;28;20210;-68
2022/08/02 09:43:15;;;;;;;4.38;1.60;;;;;;;;;;5052572;28;20202;-68
2022/08/02 09:45:42;;;;;;;1.73;1.58;;;;;;;;;;5071252;28;20618;-65
2022/08/02 09:48:11;;;;;;;2.20;1.67;;;;;;;;;;5045573;28;20738;-65
2022/08/02 09:50:39;;;;;;;1.60;1.50;;;;;;;;;;5039023;28;20224;-66
2022/08/02 09:53:16;;;;;;;1.55;1.45;;;;;;;;;;5052788;28;20758;-66
2022/08/02 09:55:43;;;;;;;3.03;1.33;;;;;;;;;;5055673;28;20378;-65
2022/08/02 09:58:17;;;;;;;1.95;1.70;;;;;;;;;;5041090;28;20244;-66
2022/08/02 10:00:53;;;;;;;3.15;1.60;;;;;;;;;;5043010;28;20200;-66
2022/08/02 10:03:20;;;;;;;1.83;1.73;;;;;;;;;;5039757;28;20547;-68
2022/08/02 10:05:49;;;;;;;1.30;1.30;;;;;;;;;;5045730;28;20289;-65
2022/08/02 10:08:22;;;;;;;1.67;1.58;;;;;;;;;;5054992;28;20274;-65
2022/08/02 10:10:59;;;;;;;1.63;1.45;;;;;;;;;;5056184;28;20210;-69
2022/08/02 10:13:34;;;;;;;1.92;1.40;;;;;;;;;;5054886;28;20209;-65
2022/08/02 10:16:02;;;;;;;1.75;1.48;;;;;;;;;;5042641;28;20243;-65
2022/08/02 10:18:30;;;;;;;2.83;1.35;;;;;;;;;;5048471;28;20226;-65
2022/08/02 10:21:11;;;;;;;1.88;1.35;;;;;;;;;;5054838;28;20210;-68
2022/08/02 10:23:39;;;;;;;2.22;1.70;;;;;;;;;;5058914;28;20202;-66
2022/08/02 10:26:07;;;;;;;1.85;1.45;;;;;;;;;;5062399;28;20197;-68
2022/08/02 10:28:36;;;;;;;1.35;1.25;;;;;;;;;;5051222;28;20258;-68
2022/08/02 10:31:05;;;;;;;1.40;1.30;;;;;;;;;;5036998;28;20233;-64
2022/08/02 10:33:35;;;;;;;1.27;1.20;;;;;;;;;;5064547;28;20212;-68
2022/08/02 10:36:04;;;;;;;1.33;1.30;;;;;;;;;;5056545;28;20206;-65
2022/08/02 10:38:35;;;;;;;1.50;1.40;;;;;;;;;;5045621;28;20237;-69
2022/08/02 10:41:03;;;;;;;1.40;1.30;;;;;;;;;;5054477;28;20209;-64
2022/08/02 10:43:30;;;;;;;1.67;1.40;;;;;;;;;;5052807;28;20228;-66
2022/08/02 10:46:33;;;;;;;1.42;1.15;;;;;;;;;;5052037;28;20214;-67
2022/08/02 10:49:16;;;;;;;3.13;1.40;;;;;;;;;;4978645;28;20232;-68
2022/08/02 10:52:04;;;;;;;1.50;1.40;;;;;;;;;;5058672;28;20650;-67
2022/08/02 10:54:33;;;;;;;2.55;1.25;;;;;;;;;;5059832;28;20204;-67
2022/08/02 10:57:01;;;;;;;2.20;1.55;;;;;;;;;;5056976;28;20245;-66
2022/08/02 10:59:37;;;;;;;1.50;1.40;;;;;;;;;;5058481;28;20225;-66
2022/08/02 11:02:05;;;;;;;1.42;1.40;;;;;;;;;;5080974;28;20592;-68
2022/08/02 11:04:36;;;;;;;2.50;1.40;;;;;;;;;;5065397;28;20198;-66
2022/08/02 11:07:14;;;;;;;1.45;1.35;;;;;;;;;;5056883;28;20222;-66
2022/08/02 11:09:42;;;;;;;1.45;1.30;;;;;;;;;;5049812;28;20201;-67
2022/08/02 11:12:10;;;;;;;1.40;1.30;;;;;;;;;;5055591;28;20209;-66
2022/08/02 11:14:45;;;;;;;2.35;1.40;;;;;;;;;;5045218;28;20210;-65
2022/08/02 11:17:14;;;;;;;1.17;1.17;;;;;;;;;;5042677;28;20240;-70
2022/08/02 11:20:01;;;;;;;1.45;1.35;;;;;;;;;;5073495;28;20226;-67
2022/08/02 11:22:28;;;;;;;2.20;1.30;;;;;;;;;;5051866;28;20201;-66
2022/08/02 11:24:56;;;;;;;1.77;1.58;;;;;;;;;;5047793;28;20211;-68
2022/08/02 11:27:23;;;;;;;2.72;2.53;;;;;;;;;;5044232;28;20233;-68
2022/08/02 11:29:51;;;;;;;1.73;1.45;;;;;;;;;;5054011;28;20280;-65
2022/08/02 11:32:23;;;;;;;1.45;1.40;;;;;;;;;;5052116;28;20544;-65
2022/08/02 11:34:57;;;;;;;1.95;1.30;;;;;;;;;;5041997;28;20216;-66
2022/08/02 11:37:29;;;;;;;1.27;1.27;;;;;;;;;;5070289;28;20053;-66
2022/08/02 11:39:56;;;;;;;1.52;1.42;;;;;;;;;;5054096;28;20213;-66
2022/08/02 11:42:31;;;;;;;1.40;1.30;;;;;;;;;;5043570;28;20254;-64
2022/08/02 11:44:59;;;;;;;1.67;1.40;;;;;;;;;;5045916;28;20205;-65
2022/08/02 11:47:27;;;;;;;1.50;1.40;;;;;;;;;;5045192;28;20213;-65
2022/08/02 11:50:10;;;;;;;1.30;1.30;;;;;;;;;;5032400;28;20275;-64
2022/08/02 11:52:38;;;;;;;1.42;1.33;;;;;;;;;;5059140;28;20213;-65
2022/08/02 11:55:09;;;;;;;4.00;1.50;;;;;;;;;;5047808;28;20197;-67
2022/08/02 11:57:37;;;;;;;2.60;1.50;;;;;;;;;;5066784;28;20221;-67
2022/08/02 12:00:25;;;;;;;1.40;1.40;;;;;;;;;;5068787;28;20292;-67
2022/08/02 12:02:57;;;;;;;1.73;1.27;;;;;;;;;;5048705;28;20198;-64
2022/08/02 12:05:27;;;;;;;1.48;1.30;;;;;;;;;;5046026;28;20300;-64
2022/08/02 12:08:15;;;;;;;1.50;1.30;;;;;;;;;;5055744;28;20230;-63
2022/08/02 12:10:49;;;;;;;1.40;1.30;;;;;;;;;;5046220;28;20223;-66
2022/08/02 12:13:16;;;;;;;2.40;1.55;;;;;;;;;;5038459;28;20220;-64
2022/08/02 12:15:45;;;;;;;1.73;1.63;;;;;;;;;;5053369;28;20201;-63
2022/08/02 12:21:00;;;;;;;2.30;1.38;;;;;;;;;;5060151;28;20392;-64
2022/08/02 12:23:28;;;;;;;1.33;1.30;;;;;;;;;;5057442;28;20217;-66
2022/08/02 12:26:06;;;;;;;1.60;1.50;;;;;;;;;;5060225;28;20263;-64
2022/08/02 12:28:34;;;;;;;2.05;1.55;;;;;;;;;;5062260;28;20225;-64
2022/08/02 12:31:02;;;;;;;2.42;1.33;;;;;;;;;;5075848;28;20264;-64
2022/08/02 12:33:43;;;;;;;1.40;1.30;;;;;;;;;;5061546;28;20202;-64
2022/08/02 12:36:15;;;;;;;1.25;1.25;;;;;;;;;;5048486;28;20245;-65
2022/08/02 12:38:55;;;;;;;1.25;1.25;;;;;;;;;;5048291;28;20395;-64
2022/08/02 12:41:23;;;;;;;1.60;1.48;;;;;;;;;;5059187;28;20259;-64
2022/08/02 12:43:59;;;;;;;1.45;1.30;;;;;;;;;;5048443;28;20212;-65
2022/08/02 12:46:26;;;;;;;1.65;1.55;;;;;;;;;;5049223;28;20206;-68
2022/08/02 12:48:54;;;;;;;1.50;1.40;;;;;;;;;;5035887;28;20256;-67
2022/08/02 12:51:41;;;;;;;1.80;1.70;;;;;;;;;;5053988;28;20662;-65
2022/08/02 12:54:38;;;;;;;3.83;1.52;;;;;;;;;;5063695;28;20391;-65
2022/08/02 12:57:15;;;;;;;1.40;1.30;;;;;;;;;;5056572;28;20541;-68
2022/08/02 12:59:43;;;;;;;1.60;1.15;;;;;;;;;;5058347;28;20248;-65
2022/08/02 13:02:12;;;;;;;4.88;1.38;;;;;;;;;;5034906;28;20212;-66
2022/08/02 13:04:40;;;;;;;1.75;1.50;;;;;;;;;;5045878;28;20233;-65
2022/08/02 13:07:16;;;;;;;2.25;1.50;;;;;;;;;;5072540;28;20678;-66
2022/08/02 13:09:45;;;;;;;1.40;1.30;;;;;;;;;;5053646;28;20255;-69
2022/08/02 13:12:13;;;;;;;3.38;1.52;;;;;;;;;;5064957;28;20216;-65
2022/08/02 13:14:41;;;;;;;1.52;1.42;;;;;;;;;;5045258;28;20233;-65
2022/08/02 13:17:12;;;;;;;1.60;1.50;;;;;;;;;;5068228;28;20231;-65
2022/08/02 13:19:41;;;;;;;2.13;1.55;;;;;;;;;;5046156;28;20230;-65
2022/08/02 13:22:08;;;;;;;1.50;1.40;;;;;;;;;;5047027;28;20198;-65
2022/08/02 13:24:37;;;;;;;1.52;1.10;;;;;;;;;;5062621;28;20221;-65
2022/08/02 13:27:22;;;;;;;1.27;1.20;;;;;;;;;;5053221;28;20351;-65
2022/08/02 13:29:50;;;;;;;2.92;1.70;;;;;;;;;;5051389;28;20572;-65
2022/08/02 13:32:18;;;;;;;1.83;1.30;;;;;;;;;;5040977;28;20336;-66
2022/08/02 13:34:48;;;;;;;1.80;1.48;;;;;;;;;;5036320;28;20209;-68
2022/08/02 13:37:16;;;;;;;1.58;1.48;;;;;;;;;;5045401;28;20263;-67
2022/08/02 13:39:43;;;;;;;1.75;1.65;;;;;;;;;;5046575;28;20236;-65
2022/08/02 13:42:32;;;;;;;2.80;1.90;;;;;;;;;;5048954;28;20204;-65
2022/08/02 13:44:59;;;;;;;1.70;1.60;;;;;;;;;;5037670;28;20710;-66
2022/08/02 13:47:38;;;;;;;1.70;1.60;;;;;;;;;;5062739;28;20222;-65
2022/08/02 13:50:25;;;;;;;1.70;1.60;;;;;;;;;;5050488;28;20676;-68
2022/08/02 13:52:54;;;;;;;2.72;1.42;;;;;;;;;;5052028;28;20213;-66
2022/08/02 13:55:22;;;;;;;1.80;1.70;;;;;;;;;;5041483;28;20614;-65
2022/08/02 13:57:49;;;;;;;1.60;1.50;;;;;;;;;;5058235;28;20758;-66
2022/08/02 14:00:19;;;;;;;1.55;1.45;;;;;;;;;;5066894;28;20237;-66
2022/08/02 14:03:03;;;;;;;1.48;1.40;;;;;;;;;;5054516;28;20239;-66
2022/08/02 14:05:30;;;;;;;1.50;1.40;;;;;;;;;;5053793;28;20201;-68
2022/08/02 14:08:14;;;;;;;1.60;1.50;;;;;;;;;;5042570;28;20221;-65
2022/08/02 14:10:43;;;;;;;1.73;1.60;;;;;;;;;;5040969;28;20485;-65
2022/08/02 14:13:11;;;;;;;4.13;1.48;;;;;;;;;;5048176;28;20557;-65
2022/08/02 14:15:38;;;;;;;1.83;1.73;;;;;;;;;;5051183;28;20210;-69
2022/08/02 14:18:06;;;;;;;2.08;1.63;;;;;;;;;;5039316;28;20313;-67
2022/08/02 14:20:33;;;;;;;1.98;1.30;;;;;;;;;;5053426;28;20229;-66
2022/08/02 14:23:04;;;;;;;1.40;1.30;;;;;;;;;;5034772;28;20210;-66
2022/08/02 14:25:31;;;;;;;1.30;1.20;;;;;;;;;;5050570;28;20213;-66
2022/08/02 14:27:58;;;;;;;1.70;1.60;;;;;;;;;;5051792;28;20233;-66
2022/08/02 14:30:26;;;;;;;1.90;1.65;;;;;;;;;;5041061;28;20205;-66
2022/08/02 14:32:53;;;;;;;1.25;1.25;;;;;;;;;;5052308;28;20584;-66
2022/08/02 14:35:21;;;;;;;2.72;1.40;;;;;;;;;;5039437;28;20200;-67
2022/08/02 14:37:48;;;;;;;1.33;1.33;;;;;;;;;;5065553;28;20640;-66
2022/08/02 14:40:16;;;;;;;3.13;1.20;;;;;;;;;;5050141;28;20314;-67
2022/08/02 14:42:57;;;;;;;1.40;1.30;;;;;;;;;;5052902;28;20233;-66
2022/08/02 14:45:25;;;;;;;1.48;1.38;;;;;;;;;;5048373;28;20215;-66
2022/08/02 14:48:02;;;;;;;1.40;1.30;;;;;;;;;;5045492;28;20217;-66
2022/08/02 14:50:30;;;;;;;3.30;1.38;;;;;;;;;;5047446;28;20913;-66
2022/08/02 14:52:57;;;;;;;2.50;1.88;;;;;;;;;;5049937;28;20204;-66
2022/08/02 14:55:25;;;;;;;1.45;1.30;;;;;;;;;;5050564;28;20220;-67
2022/08/02 14:57:52;;;;;;;1.63;1.40;;;;;;;;;;5045724;28;20233;-66
2022/08/02 15:00:19;;;;;;;1.55;1.30;;;;;;;;;;5051600;28;22564;-66
2022/08/02 15:02:47;;;;;;;1.55;1.45;;;;;;;;;;5057484;28;20201;-66
2022/08/02 15:05:14;;;;;;;3.47;1.40;;;;;;;;;;5057013;28;20204;-66
2022/08/02 15:07:42;;;;;;;1.10;1.10;;;;;;;;;;5039872;28;20452;-66
2022/08/02 15:10:15;;;;;;;2.65;1.33;;;;;;;;;;5036931;28;20205;-66